createdAt,value
2018-11-12T00:00:14.624Z,85.57
2018-11-12T00:00:45.794Z,81.80
2018-11-12T00:01:16.936Z,80.15
2018-11-12T00:01:48.057Z,85.25
2018-11-12T00:02:19.193Z,84.20
2018-11-12T00:02:50.321Z,81.50
2018-11-12T00:03:21.455Z,79.62
2018-11-12T00:03:52.572Z,82.92
2018-11-12T00:04:23.743Z,85.07
2018-11-12T00:04:54.872Z,80.80
2018-11-12T00:05:26.002Z,79.15
2018-11-12T00:05:57.132Z,78.57
2018-11-12T00:06:28.281Z,80.22
2018-11-12T00:06:59.392Z,78.02
2018-11-12T00:07:30.491Z,80.57
2018-11-12T00:08:01.604Z,76.25
2018-11-12T00:08:32.784Z,74.82
2018-11-12T00:09:03.953Z,74.27
2018-11-12T00:09:35.086Z,75.70
2018-11-12T00:10:06.219Z,71.92
2018-11-12T00:10:37.327Z,74.72
2018-11-12T00:11:08.478Z,76.47
2018-11-12T00:11:39.633Z,73.22
2018-11-12T00:12:10.764Z,74.03
2018-11-12T00:12:41.897Z,71.70
2018-11-12T00:13:13.018Z,72.92
2018-11-12T00:13:44.143Z,73.33
2018-11-12T00:14:15.310Z,73.20
2018-11-12T00:14:46.419Z,71.45
2018-11-12T00:15:17.551Z,73.12
2018-11-12T00:15:48.667Z,73.72
2018-11-12T00:16:19.779Z,72.30
2018-11-12T00:16:50.912Z,72.87
2018-11-12T00:17:22.024Z,74.40
2018-11-12T00:17:53.178Z,75.15
2018-11-12T00:18:24.318Z,73.25
2018-11-12T00:18:55.427Z,73.33
2018-11-12T00:19:26.587Z,77.05
2018-11-12T00:19:57.700Z,74.35
2018-11-12T00:20:28.821Z,74.82
2018-11-12T00:20:59.978Z,75.45
2018-11-12T00:21:31.091Z,77.53
2018-11-12T00:22:02.260Z,75.30
2018-11-12T00:22:33.372Z,76.92
2018-11-12T00:23:04.517Z,73.28
2018-11-12T00:23:35.626Z,73.47
2018-11-12T00:24:06.735Z,74.47
2018-11-12T00:24:37.886Z,75.28
2018-11-12T00:25:09.042Z,72.55
2018-11-12T00:25:40.144Z,72.30
2018-11-12T00:26:11.270Z,74.55
2018-11-12T00:26:42.418Z,72.00
2018-11-12T00:27:13.535Z,74.10
2018-11-12T00:27:44.707Z,74.60
2018-11-12T00:28:15.845Z,71.57
2018-11-12T00:28:46.960Z,72.75
2018-11-12T00:29:18.088Z,75.08
2018-11-12T00:29:49.231Z,75.12
2018-11-12T00:30:20.355Z,73.15
2018-11-12T00:30:51.479Z,72.72
2018-11-12T00:31:22.614Z,74.47
2018-11-12T00:31:53.718Z,75.70
2018-11-12T00:32:24.850Z,74.27
2018-11-12T00:32:55.998Z,76.57
2018-11-12T00:33:27.124Z,78.57
2018-11-12T00:33:58.253Z,77.32
2018-11-12T00:34:29.368Z,78.00
2018-11-12T00:35:00.562Z,80.15
2018-11-12T00:35:31.719Z,79.10
2018-11-12T00:36:02.846Z,79.17
2018-11-12T00:36:33.980Z,80.77
2018-11-12T00:37:05.092Z,79.37
2018-11-12T00:37:36.195Z,79.72
2018-11-12T00:38:07.338Z,77.70
2018-11-12T00:38:38.472Z,78.37
2018-11-12T00:39:09.621Z,76.62
2018-11-12T00:39:40.760Z,76.05
2018-11-12T00:40:11.927Z,77.42
2018-11-12T00:40:43.036Z,77.22
2018-11-12T00:41:14.163Z,72.75
2018-11-12T00:41:45.305Z,72.67
2018-11-12T00:42:16.438Z,74.70
2018-11-12T00:42:47.570Z,75.83
2018-11-12T00:43:18.662Z,73.20
2018-11-12T00:43:49.776Z,72.92
2018-11-12T00:44:20.879Z,73.67
2018-11-12T00:44:52.030Z,72.92
2018-11-12T00:45:23.225Z,72.82
2018-11-12T00:45:54.337Z,73.37
2018-11-12T00:46:25.508Z,72.53
2018-11-12T00:46:56.632Z,72.72
2018-11-12T00:47:27.735Z,69.95
2018-11-12T00:47:58.880Z,73.10
2018-11-12T00:48:29.995Z,72.95
2018-11-12T00:49:01.129Z,73.37
2018-11-12T00:49:32.265Z,73.95
2018-11-12T00:50:03.399Z,71.95
2018-11-12T00:50:34.536Z,71.42
2018-11-12T00:51:05.692Z,74.22
2018-11-12T00:51:36.798Z,72.85
2018-11-12T00:52:07.920Z,74.90
2018-11-12T00:52:39.046Z,73.07
2018-11-12T00:53:10.147Z,72.45
2018-11-12T00:53:41.268Z,72.55
2018-11-12T00:54:13.058Z,72.82
2018-11-12T00:54:44.184Z,73.57
2018-11-12T00:55:15.320Z,73.35
2018-11-12T00:55:46.458Z,71.30
2018-11-12T00:56:17.623Z,73.37
2018-11-12T00:56:48.737Z,71.07
2018-11-12T00:57:19.834Z,73.65
2018-11-12T00:57:50.997Z,71.72
2018-11-12T00:58:22.127Z,72.70
2018-11-12T00:58:53.229Z,72.12
2018-11-12T00:59:24.328Z,70.32
2018-11-12T00:59:55.428Z,68.22
2018-11-12T01:00:26.531Z,67.75
2018-11-12T01:00:57.695Z,68.12
2018-11-12T01:01:28.858Z,64.80
2018-11-12T01:02:00.010Z,67.92
2018-11-12T01:02:31.160Z,67.15
2018-11-12T01:03:02.282Z,68.40
2018-11-12T01:03:33.398Z,65.60
2018-11-12T01:04:04.598Z,67.30
2018-11-12T01:04:35.712Z,67.35
2018-11-12T01:05:06.814Z,67.85
2018-11-12T01:05:37.910Z,69.60
2018-11-12T01:06:09.103Z,67.82
2018-11-12T01:06:40.236Z,70.87
2018-11-12T01:07:11.374Z,73.00
2018-11-12T01:07:42.504Z,68.42
2018-11-12T01:08:13.630Z,68.02
2018-11-12T01:08:44.763Z,65.90
2018-11-12T01:09:15.875Z,67.90
2018-11-12T01:09:47.068Z,67.32
2018-11-12T01:10:18.187Z,67.67
2018-11-12T01:10:49.311Z,69.35
2018-11-12T01:11:20.466Z,70.17
2018-11-12T01:11:51.589Z,65.00
2018-11-12T01:12:22.705Z,66.90
2018-11-12T01:12:53.835Z,68.52
2018-11-12T01:13:24.959Z,69.07
2018-11-12T01:13:56.079Z,66.75
2018-11-12T01:14:27.220Z,67.12
2018-11-12T01:14:58.406Z,70.08
2018-11-12T01:15:29.525Z,70.22
2018-11-12T01:16:00.736Z,69.62
2018-11-12T01:16:31.851Z,70.25
2018-11-12T01:17:02.961Z,68.70
2018-11-12T01:17:34.099Z,68.33
2018-11-12T01:18:05.207Z,70.17
2018-11-12T01:18:36.344Z,70.75
2018-11-12T01:19:07.452Z,68.05
2018-11-12T01:19:38.561Z,67.85
2018-11-12T01:20:09.677Z,68.92
2018-11-12T01:20:40.816Z,68.65
2018-11-12T01:21:12.013Z,70.12
2018-11-12T01:21:43.142Z,71.62
2018-11-12T01:22:14.263Z,70.72
2018-11-12T01:22:45.389Z,71.72
2018-11-12T01:23:16.523Z,69.85
2018-11-12T01:23:47.696Z,71.55
2018-11-12T01:24:18.845Z,70.97
2018-11-12T01:24:49.956Z,69.03
2018-11-12T01:25:21.074Z,72.32
2018-11-12T01:25:52.191Z,71.85
2018-11-12T01:26:23.294Z,71.50
2018-11-12T01:26:54.418Z,70.50
2018-11-12T01:27:25.559Z,70.90
2018-11-12T01:27:56.682Z,71.70
2018-11-12T01:28:27.815Z,69.55
2018-11-12T01:28:58.945Z,68.85
2018-11-12T01:29:30.054Z,70.40
2018-11-12T01:30:01.176Z,70.25
2018-11-12T01:30:32.281Z,68.22
2018-11-12T01:31:03.412Z,69.95
2018-11-12T01:31:34.645Z,68.78
2018-11-12T01:32:05.776Z,70.00
2018-11-12T01:32:36.892Z,68.90
2018-11-12T01:33:08.012Z,70.47
2018-11-12T01:33:39.134Z,71.05
2018-11-12T01:34:10.244Z,70.15
2018-11-12T01:34:41.362Z,71.10
2018-11-12T01:35:12.491Z,70.52
2018-11-12T01:35:43.600Z,70.28
2018-11-12T01:36:14.711Z,71.60
2018-11-12T01:36:45.900Z,70.30
2018-11-12T01:37:17.055Z,69.87
2018-11-12T01:37:48.181Z,70.50
2018-11-12T01:38:19.336Z,70.87
2018-11-12T01:38:50.518Z,71.20
2018-11-12T01:39:21.656Z,69.70
2018-11-12T01:39:52.806Z,71.17
2018-11-12T01:40:23.920Z,69.85
2018-11-12T01:40:55.043Z,69.47
2018-11-12T01:41:26.158Z,70.70
2018-11-12T01:41:57.335Z,68.78
2018-11-12T01:42:28.465Z,68.45
2018-11-12T01:42:59.607Z,69.67
2018-11-12T01:43:30.708Z,68.52
2018-11-12T01:44:01.812Z,66.45
2018-11-12T01:44:32.927Z,67.32
2018-11-12T01:45:04.058Z,66.50
2018-11-12T01:45:35.164Z,68.28
2018-11-12T01:46:06.277Z,66.85
2018-11-12T01:46:37.403Z,71.12
2018-11-12T01:47:08.523Z,68.05
2018-11-12T01:47:39.639Z,70.97
2018-11-12T01:48:10.783Z,69.27
2018-11-12T01:48:41.913Z,68.35
2018-11-12T01:49:13.049Z,67.67
2018-11-12T01:49:44.154Z,69.35
2018-11-12T01:50:15.258Z,69.37
2018-11-12T01:50:46.428Z,68.35
2018-11-12T01:51:17.535Z,71.15
2018-11-12T01:51:48.687Z,71.47
2018-11-12T01:52:19.816Z,71.35
2018-11-12T01:52:50.918Z,72.80
2018-11-12T01:53:22.104Z,74.47
2018-11-12T01:53:53.216Z,71.57
2018-11-12T01:54:24.364Z,75.20
2018-11-12T01:54:55.536Z,76.42
2018-11-12T01:55:26.666Z,75.57
2018-11-12T01:55:57.819Z,72.53
2018-11-12T01:56:28.941Z,74.82
2018-11-12T01:57:00.077Z,72.78
2018-11-12T01:57:31.238Z,75.50
2018-11-12T01:58:02.407Z,76.07
2018-11-12T01:58:33.515Z,75.47
2018-11-12T01:59:04.660Z,78.02
2018-11-12T01:59:35.817Z,74.70
2018-11-12T02:00:06.974Z,74.92
2018-11-12T02:00:38.102Z,71.20
2018-11-12T02:01:09.197Z,73.70
2018-11-12T02:01:40.391Z,74.55
2018-11-12T02:02:11.510Z,72.47
2018-11-12T02:02:42.650Z,72.15
2018-11-12T02:03:13.764Z,72.25
2018-11-12T02:03:45.220Z,73.07
2018-11-12T02:04:16.332Z,72.37
2018-11-12T02:04:47.502Z,70.20
2018-11-12T02:05:18.594Z,69.58
2018-11-12T02:05:49.698Z,65.80
2018-11-12T02:06:20.875Z,67.22
2018-11-12T02:06:51.922Z,69.17
2018-11-12T02:07:23.034Z,68.83
2018-11-12T02:07:54.138Z,68.62
2018-11-12T02:08:25.268Z,70.03
2018-11-12T02:08:56.523Z,65.37
2018-11-12T02:09:27.581Z,64.53
2018-11-12T02:09:58.683Z,67.90
2018-11-12T02:10:29.821Z,65.87
2018-11-12T02:11:00.943Z,63.78
2018-11-12T02:11:32.040Z,61.75
2018-11-12T02:12:03.150Z,60.75
2018-11-12T02:12:34.249Z,63.30
2018-11-12T02:13:05.351Z,62.83
2018-11-12T02:13:36.471Z,62.25
2018-11-12T02:14:07.622Z,62.83
2018-11-12T02:14:38.864Z,65.08
2018-11-12T02:15:09.935Z,62.08
2018-11-12T02:15:41.035Z,61.65
2018-11-12T02:16:12.179Z,60.95
2018-11-12T02:16:43.292Z,64.80
2018-11-12T02:17:14.395Z,64.17
2018-11-12T02:17:45.503Z,65.90
2018-11-12T02:18:16.608Z,66.70
2018-11-12T02:18:47.734Z,65.12
2018-11-12T02:19:18.876Z,65.92
2018-11-12T02:19:50.034Z,65.95
2018-11-12T02:20:21.136Z,65.37
2018-11-12T02:20:52.253Z,65.95
2018-11-12T02:21:23.355Z,64.25
2018-11-12T02:21:54.501Z,64.65
2018-11-12T02:22:25.653Z,64.15
2018-11-12T02:22:56.787Z,63.48
2018-11-12T02:23:27.897Z,63.13
2018-11-12T02:23:59.023Z,63.75
2018-11-12T02:24:30.126Z,62.83
2018-11-12T02:25:01.257Z,63.68
2018-11-12T02:25:32.388Z,61.28
2018-11-12T02:26:03.517Z,59.40
2018-11-12T02:26:34.647Z,60.90
2018-11-12T02:27:05.811Z,61.23
2018-11-12T02:27:36.932Z,60.80
2018-11-12T02:28:08.044Z,61.37
2018-11-12T02:28:39.183Z,61.05
2018-11-12T02:29:10.359Z,61.85
2018-11-12T02:29:41.477Z,62.60
2018-11-12T02:30:12.612Z,61.37
2018-11-12T02:30:43.751Z,61.50
2018-11-12T02:31:14.899Z,59.93
2018-11-12T02:31:46.038Z,59.85
2018-11-12T02:32:17.179Z,59.65
2018-11-12T02:32:48.306Z,61.63
2018-11-12T02:33:19.504Z,57.23
2018-11-12T02:33:50.597Z,57.85
2018-11-12T02:34:21.700Z,60.17
2018-11-12T02:34:52.831Z,57.62
2018-11-12T02:35:23.957Z,57.25
2018-11-12T02:35:55.112Z,59.35
2018-11-12T02:36:26.326Z,59.27
2018-11-12T02:36:57.466Z,62.88
2018-11-12T02:37:28.577Z,60.98
2018-11-12T02:37:59.705Z,56.83
2018-11-12T02:38:30.815Z,59.40
2018-11-12T02:39:01.923Z,59.80
2018-11-12T02:39:33.039Z,58.52
2018-11-12T02:40:04.182Z,57.00
2018-11-12T02:40:35.296Z,58.60
2018-11-12T02:41:06.420Z,60.80
2018-11-12T02:41:37.591Z,61.00
2018-11-12T02:42:08.736Z,58.35
2018-11-12T02:42:39.846Z,59.33
2018-11-12T02:43:10.974Z,58.13
2018-11-12T02:43:42.075Z,60.52
2018-11-12T02:44:13.238Z,59.58
2018-11-12T02:44:44.354Z,59.00
2018-11-12T02:45:15.527Z,58.15
2018-11-12T02:45:46.660Z,58.65
2018-11-12T02:46:17.790Z,60.00
2018-11-12T02:46:48.906Z,58.78
2018-11-12T02:47:20.040Z,59.35
2018-11-12T02:47:51.326Z,58.25
2018-11-12T02:48:22.474Z,58.33
2018-11-12T02:48:53.593Z,57.43
2018-11-12T02:49:24.690Z,56.30
2018-11-12T02:49:55.802Z,55.75
2018-11-12T02:50:27.679Z,56.83
2018-11-12T02:50:58.792Z,58.90
2018-11-12T02:51:29.918Z,57.38
2018-11-12T02:52:01.065Z,57.58
2018-11-12T02:52:32.177Z,58.40
2018-11-12T02:53:03.346Z,57.10
2018-11-12T02:53:34.475Z,61.42
2018-11-12T02:54:05.607Z,60.60
2018-11-12T02:54:36.751Z,59.00
2018-11-12T02:55:07.862Z,60.08
2018-11-12T02:55:39.002Z,59.85
2018-11-12T02:56:10.149Z,60.92
2018-11-12T02:56:41.252Z,64.27
2018-11-12T02:57:12.366Z,61.10
2018-11-12T02:57:43.522Z,61.10
2018-11-12T02:58:14.627Z,62.53
2018-11-12T02:58:45.733Z,64.45
2018-11-12T02:59:16.839Z,65.32
2018-11-12T02:59:47.949Z,62.00
2018-11-12T03:00:19.051Z,59.18
2018-11-12T03:00:50.194Z,59.05
2018-11-12T03:01:21.339Z,57.15
2018-11-12T03:01:52.516Z,56.45
2018-11-12T03:02:23.616Z,54.55
2018-11-12T03:02:54.734Z,55.38
2018-11-12T03:03:25.893Z,55.17
2018-11-12T03:03:57.019Z,55.23
2018-11-12T03:04:28.178Z,49.85
2018-11-12T03:04:59.288Z,53.30
2018-11-12T03:05:30.387Z,52.95
2018-11-12T03:06:01.512Z,53.68
2018-11-12T03:06:32.677Z,54.27
2018-11-12T03:07:03.792Z,55.20
2018-11-12T03:07:35.035Z,54.10
2018-11-12T03:08:06.101Z,55.65
2018-11-12T03:08:37.211Z,56.63
2018-11-12T03:09:08.359Z,56.42
2018-11-12T03:09:39.483Z,57.27
2018-11-12T03:10:10.612Z,57.17
2018-11-12T03:10:41.755Z,54.20
2018-11-12T03:11:12.899Z,56.20
2018-11-12T03:11:44.030Z,57.17
2018-11-12T03:12:15.146Z,58.00
2018-11-12T03:12:46.247Z,56.00
2018-11-12T03:13:17.398Z,56.23
2018-11-12T03:13:48.506Z,54.38
2018-11-12T03:14:19.644Z,56.88
2018-11-12T03:14:50.743Z,54.70
2018-11-12T03:15:21.907Z,54.55
2018-11-12T03:15:53.024Z,56.18
2018-11-12T03:16:24.163Z,57.60
2018-11-12T03:16:55.342Z,56.98
2018-11-12T03:17:26.451Z,58.45
2018-11-12T03:17:57.654Z,59.20
2018-11-12T03:18:28.804Z,58.95
2018-11-12T03:18:59.906Z,57.17
2018-11-12T03:19:31.033Z,60.45
2018-11-12T03:20:02.164Z,58.98
2018-11-12T03:20:33.320Z,59.05
2018-11-12T03:21:04.436Z,59.05
2018-11-12T03:21:35.551Z,57.75
2018-11-12T03:22:06.672Z,59.88
2018-11-12T03:22:37.789Z,58.28
2018-11-12T03:23:08.895Z,59.75
2018-11-12T03:23:40.031Z,59.73
2018-11-12T03:24:11.136Z,58.58
2018-11-12T03:24:42.256Z,60.58
2018-11-12T03:25:13.394Z,58.80
2018-11-12T03:25:44.555Z,60.12
2018-11-12T03:26:15.667Z,61.88
2018-11-12T03:26:46.776Z,62.62
2018-11-12T03:27:17.883Z,63.48
2018-11-12T03:27:49.063Z,62.85
2018-11-12T03:28:20.190Z,61.20
2018-11-12T03:28:51.306Z,61.75
2018-11-12T03:29:22.415Z,62.17
2018-11-12T03:29:53.518Z,64.92
2018-11-12T03:30:24.649Z,64.35
2018-11-12T03:30:55.814Z,64.92
2018-11-12T03:31:26.929Z,64.72
2018-11-12T03:31:58.058Z,64.50
2018-11-12T03:32:29.222Z,66.05
2018-11-12T03:33:00.355Z,65.10
2018-11-12T03:33:31.473Z,64.58
2018-11-12T03:34:02.603Z,65.03
2018-11-12T03:34:33.737Z,63.78
2018-11-12T03:35:04.863Z,66.22
2018-11-12T03:35:35.985Z,65.10
2018-11-12T03:36:07.164Z,62.38
2018-11-12T03:36:38.288Z,65.60
2018-11-12T03:37:09.395Z,62.78
2018-11-12T03:37:40.538Z,65.05
2018-11-12T03:38:11.771Z,60.75
2018-11-12T03:38:42.883Z,57.17
2018-11-12T03:39:13.986Z,60.15
2018-11-12T03:39:45.185Z,58.58
2018-11-12T03:40:16.228Z,57.43
2018-11-12T03:40:47.380Z,56.60
2018-11-12T03:41:18.508Z,58.15
2018-11-12T03:41:49.675Z,59.65
2018-11-12T03:42:20.792Z,58.33
2018-11-12T03:42:51.894Z,58.52
2018-11-12T03:43:23.080Z,61.20
2018-11-12T03:43:54.226Z,59.83
2018-11-12T03:44:25.340Z,58.00
2018-11-12T03:44:56.469Z,56.13
2018-11-12T03:45:27.573Z,53.58
2018-11-12T03:45:58.679Z,55.40
2018-11-12T03:46:29.814Z,53.35
2018-11-12T03:47:00.918Z,54.30
2018-11-12T03:47:32.054Z,55.15
2018-11-12T03:48:03.156Z,55.30
2018-11-12T03:48:34.298Z,53.23
2018-11-12T03:49:05.493Z,53.48
2018-11-12T03:49:36.640Z,52.93
2018-11-12T03:50:07.775Z,52.60
2018-11-12T03:50:38.923Z,54.15
2018-11-12T03:51:10.106Z,55.15
2018-11-12T03:51:41.256Z,56.23
2018-11-12T03:52:12.428Z,56.58
2018-11-12T03:52:43.544Z,55.03
2018-11-12T03:53:14.673Z,55.83
2018-11-12T03:53:45.820Z,57.43
2018-11-12T03:54:16.971Z,55.40
2018-11-12T03:54:48.099Z,56.18
2018-11-12T03:55:19.237Z,55.05
2018-11-12T03:55:50.350Z,54.67
2018-11-12T03:56:21.466Z,53.08
2018-11-12T03:56:52.584Z,52.80
2018-11-12T03:57:23.711Z,55.20
2018-11-12T03:57:54.826Z,52.73
2018-11-12T03:58:25.962Z,54.18
2018-11-12T03:58:57.148Z,52.80
2018-11-12T03:59:28.354Z,51.98
2018-11-12T03:59:59.517Z,53.15
2018-11-12T04:00:30.744Z,54.13
2018-11-12T04:01:01.771Z,54.48
2018-11-12T04:01:32.952Z,55.25
2018-11-12T04:02:04.096Z,56.40
2018-11-12T04:02:35.224Z,58.23
2018-11-12T04:03:06.339Z,59.38
2018-11-12T04:03:37.454Z,58.95
2018-11-12T04:04:08.586Z,58.98
2018-11-12T04:04:39.764Z,60.33
2018-11-12T04:05:10.884Z,58.13
2018-11-12T04:05:42.024Z,60.65
2018-11-12T04:06:13.158Z,59.03
2018-11-12T04:06:44.341Z,58.85
2018-11-12T04:07:15.479Z,61.05
2018-11-12T04:07:46.634Z,62.27
2018-11-12T04:08:17.754Z,60.67
2018-11-12T04:08:48.900Z,61.48
2018-11-12T04:09:20.096Z,60.75
2018-11-12T04:09:51.239Z,60.60
2018-11-12T04:10:22.367Z,62.00
2018-11-12T04:10:53.473Z,60.80
2018-11-12T04:11:24.624Z,61.95
2018-11-12T04:11:55.750Z,63.65
2018-11-12T04:12:26.918Z,60.33
2018-11-12T04:12:58.047Z,63.58
2018-11-12T04:13:29.173Z,59.63
2018-11-12T04:14:00.327Z,61.63
2018-11-12T04:14:31.455Z,60.63
2018-11-12T04:15:02.608Z,58.38
2018-11-12T04:15:33.744Z,58.78
2018-11-12T04:16:04.859Z,59.53
2018-11-12T04:16:35.977Z,60.67
2018-11-12T04:17:07.142Z,58.90
2018-11-12T04:17:38.286Z,57.98
2018-11-12T04:18:09.451Z,59.83
2018-11-12T04:18:40.614Z,59.20
2018-11-12T04:19:11.733Z,57.65
2018-11-12T04:19:42.882Z,59.13
2018-11-12T04:20:14.010Z,58.52
2018-11-12T04:20:45.181Z,61.83
2018-11-12T04:21:16.334Z,62.05
2018-11-12T04:21:47.508Z,60.40
2018-11-12T04:22:18.668Z,58.78
2018-11-12T04:22:49.801Z,58.90
2018-11-12T04:23:20.957Z,57.83
2018-11-12T04:23:52.133Z,58.50
2018-11-12T04:24:23.260Z,59.25
2018-11-12T04:24:54.398Z,56.77
2018-11-12T04:25:25.520Z,59.13
2018-11-12T04:25:56.654Z,59.15
2018-11-12T04:26:27.800Z,60.38
2018-11-12T04:26:58.915Z,61.18
2018-11-12T04:27:30.073Z,61.35
2018-11-12T04:28:01.190Z,59.63
2018-11-12T04:28:32.328Z,61.25
2018-11-12T04:29:03.481Z,60.95
2018-11-12T04:29:34.639Z,62.05
2018-11-12T04:30:05.776Z,62.62
2018-11-12T04:30:36.912Z,63.02
2018-11-12T04:31:08.051Z,61.80
2018-11-12T04:31:39.230Z,65.87
2018-11-12T04:32:10.369Z,66.42
2018-11-12T04:32:41.480Z,67.35
2018-11-12T04:33:12.658Z,67.00
2018-11-12T04:33:43.806Z,65.00
2018-11-12T04:34:14.927Z,69.07
2018-11-12T04:34:46.041Z,67.42
2018-11-12T04:35:17.161Z,69.07
2018-11-12T04:35:48.333Z,66.87
2018-11-12T04:36:19.445Z,65.25
2018-11-12T04:36:50.551Z,66.70
2018-11-12T04:37:21.660Z,64.22
2018-11-12T04:37:52.772Z,61.95
2018-11-12T04:38:23.897Z,63.20
2018-11-12T04:38:55.061Z,63.58
2018-11-12T04:39:26.184Z,59.25
2018-11-12T04:39:57.305Z,64.85
2018-11-12T04:40:28.458Z,66.55
2018-11-12T04:40:59.594Z,62.55
2018-11-12T04:41:30.732Z,66.53
2018-11-12T04:42:01.854Z,67.50
2018-11-12T04:42:33.007Z,64.77
2018-11-12T04:43:04.138Z,63.80
2018-11-12T04:43:35.265Z,64.07
2018-11-12T04:44:06.424Z,64.53
2018-11-12T04:44:37.558Z,65.42
2018-11-12T04:45:08.739Z,65.62
2018-11-12T04:45:39.933Z,64.67
2018-11-12T04:46:11.111Z,66.82
2018-11-12T04:46:42.239Z,66.40
2018-11-12T04:47:13.358Z,65.15
2018-11-12T04:47:44.492Z,65.90
2018-11-12T04:48:15.660Z,67.15
2018-11-12T04:48:46.810Z,60.17
2018-11-12T04:49:17.923Z,60.40
2018-11-12T04:49:49.041Z,57.90
2018-11-12T04:50:20.189Z,59.50
2018-11-12T04:50:51.331Z,57.10
2018-11-12T04:51:22.462Z,58.78
2018-11-12T04:51:53.591Z,56.35
2018-11-12T04:52:24.731Z,56.15
2018-11-12T04:52:55.871Z,56.37
2018-11-12T04:53:27.062Z,54.88
2018-11-12T04:53:58.198Z,58.63
2018-11-12T04:54:29.338Z,55.80
2018-11-12T04:55:00.525Z,59.50
2018-11-12T04:55:31.629Z,58.15
2018-11-12T04:56:02.755Z,59.75
2018-11-12T04:56:33.901Z,61.10
2018-11-12T04:57:05.064Z,58.15
2018-11-12T04:57:36.178Z,60.78
2018-11-12T04:58:07.309Z,59.20
2018-11-12T04:58:38.455Z,61.10
2018-11-12T04:59:09.646Z,61.10
2018-11-12T04:59:40.720Z,60.85
2018-11-12T05:00:11.859Z,61.85
2018-11-12T05:00:42.969Z,58.10
2018-11-12T05:01:14.141Z,60.08
2018-11-12T05:01:45.296Z,57.88
2018-11-12T05:02:16.491Z,60.38
2018-11-12T05:02:47.662Z,59.73
2018-11-12T05:03:18.774Z,60.38
2018-11-12T05:03:49.918Z,58.87
2018-11-12T05:04:21.069Z,59.77
2018-11-12T05:04:52.465Z,60.40
2018-11-12T05:05:23.589Z,59.58
2018-11-12T05:05:54.734Z,59.73
2018-11-12T05:06:25.886Z,60.52
2018-11-12T05:06:57.004Z,58.40
2018-11-12T05:07:28.292Z,58.65
2018-11-12T05:07:59.388Z,57.55
2018-11-12T05:08:30.504Z,58.98
2018-11-12T05:09:01.660Z,56.37
2018-11-12T05:09:32.781Z,55.10
2018-11-12T05:10:03.937Z,54.42
2018-11-12T05:10:35.084Z,56.60
2018-11-12T05:11:06.211Z,55.70
2018-11-12T05:11:37.350Z,58.70
2018-11-12T05:12:08.493Z,58.55
2018-11-12T05:12:39.604Z,56.90
2018-11-12T05:13:10.721Z,58.65
2018-11-12T05:13:41.836Z,59.53
2018-11-12T05:14:13.006Z,62.88
2018-11-12T05:14:44.128Z,62.17
2018-11-12T05:15:15.334Z,59.73
2018-11-12T05:15:46.455Z,61.10
2018-11-12T05:16:17.598Z,63.48
2018-11-12T05:16:48.759Z,64.07
2018-11-12T05:17:19.888Z,62.53
2018-11-12T05:17:51.048Z,66.55
2018-11-12T05:18:22.216Z,64.15
2018-11-12T05:18:53.409Z,64.07
2018-11-12T05:19:24.539Z,65.75
2018-11-12T05:19:55.691Z,60.03
2018-11-12T05:20:26.878Z,60.52
2018-11-12T05:20:58.010Z,67.30
2018-11-12T05:21:29.156Z,62.40
2018-11-12T05:22:00.289Z,61.60
2018-11-12T05:22:31.427Z,62.40
2018-11-12T05:23:02.575Z,60.35
2018-11-12T05:23:33.751Z,59.35
2018-11-12T05:24:04.944Z,62.70
2018-11-12T05:24:36.060Z,58.75
2018-11-12T05:25:07.180Z,57.90
2018-11-12T05:25:38.329Z,59.67
2018-11-12T05:26:09.443Z,60.15
2018-11-12T05:26:40.582Z,60.85
2018-11-12T05:27:11.735Z,58.52
2018-11-12T05:27:42.872Z,57.45
2018-11-12T05:28:14.014Z,59.63
2018-11-12T05:28:45.128Z,59.53
2018-11-12T05:29:16.347Z,58.38
2018-11-12T05:29:47.483Z,58.83
2018-11-12T05:30:18.613Z,60.10
2018-11-12T05:30:49.795Z,57.85
2018-11-12T05:31:20.913Z,55.23
2018-11-12T05:31:52.034Z,59.93
2018-11-12T05:32:23.218Z,57.27
2018-11-12T05:32:54.358Z,51.13
2018-11-12T05:33:25.546Z,53.73
2018-11-12T05:33:56.668Z,53.48
2018-11-12T05:34:27.794Z,52.13
2018-11-12T05:34:58.902Z,54.50
2018-11-12T05:35:30.074Z,51.95
2018-11-12T05:36:01.199Z,52.85
2018-11-12T05:36:32.334Z,49.45
2018-11-12T05:37:03.459Z,47.33
2018-11-12T05:37:34.684Z,51.30
2018-11-12T05:38:05.786Z,48.68
2018-11-12T05:38:36.870Z,50.28
2018-11-12T05:39:07.992Z,49.83
2018-11-12T05:39:39.152Z,50.03
2018-11-12T05:40:10.303Z,49.83
2018-11-12T05:40:41.494Z,51.15
2018-11-12T05:41:12.637Z,51.20
2018-11-12T05:41:43.799Z,51.70
2018-11-12T05:42:14.938Z,48.42
2018-11-12T05:42:46.058Z,52.25
2018-11-12T05:43:17.183Z,54.30
2018-11-12T05:43:48.312Z,54.00
2018-11-12T05:44:19.438Z,52.30
2018-11-12T05:44:50.607Z,54.15
2018-11-12T05:45:21.750Z,50.12
2018-11-12T05:45:52.882Z,51.50
2018-11-12T05:46:24.049Z,52.15
2018-11-12T05:46:55.200Z,51.10
2018-11-12T05:47:26.319Z,48.35
2018-11-12T05:47:57.440Z,48.63
2018-11-12T05:48:28.599Z,48.80
2018-11-12T05:48:59.749Z,49.95
2018-11-12T05:49:30.896Z,48.05
2018-11-12T05:50:02.045Z,51.20
2018-11-12T05:50:33.190Z,50.55
2018-11-12T05:51:04.330Z,49.93
2018-11-12T05:51:35.633Z,51.10
2018-11-12T05:52:06.687Z,49.15
2018-11-12T05:52:37.831Z,50.73
2018-11-12T05:53:08.945Z,49.53
2018-11-12T05:53:40.103Z,49.98
2018-11-12T05:54:11.251Z,49.08
2018-11-12T05:54:42.382Z,48.75
2018-11-12T05:55:13.480Z,49.15
2018-11-12T05:55:44.618Z,48.17
2018-11-12T05:56:15.751Z,48.73
2018-11-12T05:56:46.854Z,49.73
2018-11-12T05:57:18.000Z,46.75
2018-11-12T05:57:49.214Z,46.50
2018-11-12T05:58:20.325Z,46.35
2018-11-12T05:58:51.516Z,46.65
2018-11-12T05:59:22.651Z,45.20
2018-11-12T05:59:53.791Z,43.98
2018-11-12T06:00:24.920Z,44.98
2018-11-12T06:00:56.077Z,45.20
2018-11-12T06:01:27.235Z,43.68
2018-11-12T06:01:58.379Z,44.48
2018-11-12T06:02:29.495Z,45.48
2018-11-12T06:03:00.670Z,44.13
2018-11-12T06:03:31.819Z,44.93
2018-11-12T06:04:02.961Z,43.40
2018-11-12T06:04:34.139Z,41.40
2018-11-12T06:05:05.300Z,42.30
2018-11-12T06:05:36.474Z,42.75
2018-11-12T06:06:07.591Z,42.73
2018-11-12T06:06:38.694Z,43.52
2018-11-12T06:07:09.829Z,44.55
2018-11-12T06:07:40.961Z,42.53
2018-11-12T06:08:12.089Z,43.02
2018-11-12T06:08:43.250Z,42.43
2018-11-12T06:09:14.386Z,42.78
2018-11-12T06:09:45.505Z,41.53
2018-11-12T06:10:16.684Z,43.68
2018-11-12T06:10:47.815Z,43.35
2018-11-12T06:11:18.977Z,43.08
2018-11-12T06:11:50.072Z,42.35
2018-11-12T06:12:21.208Z,42.78
2018-11-12T06:12:52.366Z,42.73
2018-11-12T06:13:23.530Z,43.30
2018-11-12T06:13:54.651Z,41.98
2018-11-12T06:14:25.780Z,42.62
2018-11-12T06:14:56.895Z,42.80
2018-11-12T06:15:28.020Z,40.17
2018-11-12T06:15:59.147Z,43.02
2018-11-12T06:16:30.274Z,41.65
2018-11-12T06:17:01.385Z,40.33
2018-11-12T06:17:32.536Z,41.35
2018-11-12T06:18:03.719Z,40.28
2018-11-12T06:18:34.868Z,40.40
2018-11-12T06:19:06.004Z,39.27
2018-11-12T06:19:37.136Z,40.92
2018-11-12T06:20:08.286Z,41.68
2018-11-12T06:20:39.406Z,40.33
2018-11-12T06:21:10.514Z,39.58
2018-11-12T06:21:41.645Z,42.10
2018-11-12T06:22:12.790Z,41.28
2018-11-12T06:22:44.169Z,41.48
2018-11-12T06:23:15.122Z,41.00
2018-11-12T06:23:46.305Z,41.60
2018-11-12T06:24:17.461Z,41.92
2018-11-12T06:24:48.572Z,39.63
2018-11-12T06:25:19.984Z,41.35
2018-11-12T06:25:51.130Z,40.90
2018-11-12T06:26:22.239Z,42.48
2018-11-12T06:26:53.362Z,40.08
2018-11-12T06:27:24.491Z,40.25
2018-11-12T06:27:55.624Z,40.08
2018-11-12T06:28:26.749Z,38.70
2018-11-12T06:28:57.932Z,39.53
2018-11-12T06:29:29.066Z,39.78
2018-11-12T06:30:00.182Z,40.55
2018-11-12T06:30:31.328Z,42.08
2018-11-12T06:31:02.555Z,42.17
2018-11-12T06:31:33.690Z,41.92
2018-11-12T06:32:04.809Z,40.92
2018-11-12T06:32:35.938Z,41.40
2018-11-12T06:33:07.062Z,41.73
2018-11-12T06:33:38.217Z,42.53
2018-11-12T06:34:09.423Z,40.50
2018-11-12T06:34:40.555Z,40.73
2018-11-12T06:35:11.686Z,40.60
2018-11-12T06:35:42.806Z,38.38
2018-11-12T06:36:13.940Z,38.83
2018-11-12T06:36:45.108Z,40.17
2018-11-12T06:37:16.204Z,38.65
2018-11-12T06:37:47.330Z,40.17
2018-11-12T06:38:18.435Z,39.63
2018-11-12T06:38:49.544Z,39.05
2018-11-12T06:39:20.715Z,39.38
2018-11-12T06:39:51.811Z,38.45
2018-11-12T06:40:22.916Z,38.33
2018-11-12T06:40:54.070Z,37.00